Time;durP1;ratioP1;P1;durP2;ratioP2;P2;SDS_P1;SDS_P2;PMS_P1;PMS_P2;Temp;Humidity;BMP_temperature;BMP_pressure;BME280_temperature;BME280_humidity;BME280_pressure;Samples;Min_cycle;Max_cycle;Signal;HPM_P1;HPM_P2
2023/04/09 00:01:06;;;;;;;105.50;42.28;;;;;;;4.39;100.00;102354.72;5001122;28;20033;-80
2023/04/09 00:03:32;;;;;;;93.53;35.03;;;;;;;4.43;100.00;102354.47;4968057;28;20030;-83
2023/04/09 00:05:57;;;;;;;104.32;39.05;;;;;;;4.47;100.00;102356.94;5011070;28;20030;-83
2023/04/09 00:08:23;;;;;;;114.43;44.33;;;;;;;4.41;100.00;102353.69;5007557;28;20034;-83
2023/04/09 00:10:49;;;;;;;118.15;41.13;;;;;;;4.40;100.00;102356.41;4979886;28;20045;-78
2023/04/09 00:13:15;;;;;;;121.90;42.60;;;;;;;4.36;100.00;102355.72;5003275;28;20030;-81
2023/04/09 00:15:40;;;;;;;138.63;41.42;;;;;;;4.35;100.00;102359.28;5000331;28;20422;-84
2023/04/09 00:18:05;;;;;;;93.63;38.63;;;;;;;4.30;100.00;102366.63;4988536;28;20483;-84
2023/04/09 00:20:31;;;;;;;88.33;35.33;;;;;;;4.38;100.00;102369.72;4977273;28;20285;-83
2023/04/09 00:22:57;;;;;;;104.83;36.97;;;;;;;4.39;100.00;102366.13;4975506;28;20034;-84
2023/04/09 00:25:22;;;;;;;93.93;37.20;;;;;;;4.37;100.00;102367.16;4977255;28;20069;-84
2023/04/09 00:27:48;;;;;;;162.45;39.67;;;;;;;4.38;100.00;102368.88;4999123;28;20048;-81
2023/04/09 00:30:14;;;;;;;115.43;38.83;;;;;;;4.32;100.00;102370.06;5008834;28;20037;-79
2023/04/09 00:32:40;;;;;;;94.53;37.90;;;;;;;4.27;100.00;102360.66;4975948;28;20045;-82
2023/04/09 00:35:06;;;;;;;213.32;45.38;;;;;;;4.29;100.00;102364.09;5008767;28;20042;-82
2023/04/09 00:37:31;;;;;;;258.50;52.70;;;;;;;4.18;100.00;102362.00;4963035;28;20118;-84
2023/04/09 00:39:56;;;;;;;87.93;37.30;;;;;;;4.25;100.00;102359.88;4959924;28;20035;-84
2023/04/09 00:42:22;;;;;;;103.33;38.63;;;;;;;4.31;100.00;102364.84;4976166;28;20022;-82
2023/04/09 00:44:49;;;;;;;148.27;38.10;;;;;;;4.38;100.00;102366.25;4959905;28;20038;-81
2023/04/09 00:47:14;;;;;;;119.00;40.67;;;;;;;4.41;100.00;102368.72;4987039;28;20037;-83
2023/04/09 00:49:40;;;;;;;115.22;40.42;;;;;;;4.41;100.00;102369.56;4975204;28;20077;-83
2023/04/09 00:52:06;;;;;;;93.27;38.33;;;;;;;4.38;100.00;102364.44;4966003;28;20046;-83
2023/04/09 00:54:32;;;;;;;130.00;39.42;;;;;;;4.39;100.00;102357.34;4993425;28;20037;-83
2023/04/09 00:56:58;;;;;;;101.95;37.60;;;;;;;4.39;100.00;102354.72;4959951;28;20037;-84
2023/04/09 00:59:24;;;;;;;108.93;39.15;;;;;;;4.41;100.00;102350.19;5004912;28;20034;-79
2023/04/09 01:01:50;;;;;;;98.07;38.03;;;;;;;4.45;100.00;102354.38;4976361;28;20082;-81
2023/04/09 01:04:15;;;;;;;95.57;35.13;;;;;;;4.47;100.00;102360.41;4987049;28;20058;-83
2023/04/09 01:07:09;;;;;;;110.00;39.85;;;;;;;4.43;100.00;102358.91;4979285;28;20445;-82
2023/04/09 01:10:00;;;;;;;171.23;47.08;;;;;;;4.32;100.00;102348.06;4973240;28;20451;-81
2023/04/09 01:13:02;;;;;;;119.68;39.35;;;;;;;4.33;100.00;102347.09;4973348;28;20320;-84
2023/04/09 01:15:32;;;;;;;215.55;47.13;;;;;;;4.33;100.00;102349.75;4998193;28;20129;-83
2023/04/09 01:18:06;;;;;;;138.00;38.78;;;;;;;4.35;100.00;102356.66;4962976;28;20041;-78
2023/04/09 01:20:41;;;;;;;134.13;44.30;;;;;;;4.32;100.00;102350.69;5006447;28;20431;-82
2023/04/09 01:23:15;;;;;;;121.20;42.17;;;;;;;4.33;100.00;102349.75;4988291;28;20065;-82
2023/04/09 01:25:44;;;;;;;139.52;44.92;;;;;;;4.24;100.00;102353.75;4977748;28;20054;-82
2023/04/09 01:28:16;;;;;;;125.35;44.72;;;;;;;4.31;100.00;102348.97;4983965;28;20475;-83
2023/04/09 01:30:46;;;;;;;179.93;44.05;;;;;;;4.30;100.00;102342.84;5001326;28;20110;-82
2023/04/09 01:33:13;;;;;;;103.13;38.58;;;;;;;4.33;100.00;102344.44;4980653;28;20395;-82
2023/04/09 01:35:41;;;;;;;122.63;44.78;;;;;;;4.35;100.00;102342.59;4976519;28;20554;-83
2023/04/09 01:38:08;;;;;;;165.35;45.75;;;;;;;4.36;100.00;102339.88;5003874;28;20026;-83
2023/04/09 01:40:34;;;;;;;104.68;40.33;;;;;;;4.28;100.00;102330.63;5002654;28;20491;-80
2023/04/09 01:43:01;;;;;;;105.00;38.72;;;;;;;4.33;100.00;102332.13;4988458;28;20033;-80
2023/04/09 01:45:26;;;;;;;98.95;40.75;;;;;;;4.35;100.00;102332.00;4957296;28;20038;-83
2023/04/09 01:47:54;;;;;;;100.23;38.27;;;;;;;4.39;100.00;102330.91;4957680;28;20379;-81
2023/04/09 01:50:20;;;;;;;99.70;38.10;;;;;;;4.38;100.00;102321.28;4960481;28;20277;-84
2023/04/09 01:52:46;;;;;;;91.50;38.28;;;;;;;4.40;100.00;102319.38;4974118;28;20048;-86
2023/04/09 01:55:11;;;;;;;95.22;36.83;;;;;;;4.38;100.00;102323.94;4993964;28;20049;-82
2023/04/09 01:57:36;;;;;;;108.13;38.20;;;;;;;4.40;100.00;102322.03;4971801;28;20034;-81
2023/04/09 02:00:03;;;;;;;98.80;38.80;;;;;;;4.37;100.00;102314.28;4976756;28;20038;-81
2023/04/09 02:03:09;;;;;;;110.82;37.30;;;;;;;4.38;100.00;102310.72;4993575;28;20328;-85
2023/04/09 02:05:51;;;;;;;94.18;37.97;;;;;;;4.35;100.00;102310.84;4957321;28;20069;-82
2023/04/09 02:08:20;;;;;;;119.63;39.25;;;;;;;4.28;100.00;102305.03;4974184;28;20037;-79
2023/04/09 02:10:54;;;;;;;104.25;38.60;;;;;;;4.28;100.00;102299.75;4997396;28;20266;-83
2023/04/09 02:13:20;;;;;;;107.05;38.35;;;;;;;4.30;100.00;102304.97;4961602;28;20113;-82
2023/04/09 02:15:47;;;;;;;285.05;51.90;;;;;;;4.22;100.00;102297.47;4996609;28;20042;-83
2023/04/09 02:18:31;;;;;;;123.03;41.42;;;;;;;4.22;100.00;102303.59;5002569;28;20045;-79
2023/04/09 02:20:58;;;;;;;174.85;46.00;;;;;;;4.25;100.00;102299.94;4984217;28;20117;-82
2023/04/09 02:23:24;;;;;;;138.95;42.42;;;;;;;4.25;100.00;102299.94;4961141;28;20023;-81
2023/04/09 02:25:51;;;;;;;;;;;;;;;4.20;100.00;102302.81;5021430;28;20041;-79
2023/04/09 02:28:17;;;;;;;148.88;39.47;;;;;;;4.26;100.00;102300.78;5003823;28;19916;-81
2023/04/09 02:30:42;;;;;;;125.32;39.78;;;;;;;4.22;100.00;102295.66;4979888;28;20273;-82
2023/04/09 02:33:08;;;;;;;103.50;38.45;;;;;;;4.30;100.00;102299.69;5004672;28;20041;-79
2023/04/09 02:35:33;;;;;;;152.33;40.40;;;;;;;4.37;100.00;102299.25;5008380;28;20582;-82
2023/04/09 02:37:59;;;;;;;122.67;41.23;;;;;;;4.35;100.00;102295.84;5004470;28;20747;-81
2023/04/09 02:40:24;;;;;;;101.22;36.35;;;;;;;4.38;100.00;102286.91;4973959;28;20031;-84
2023/04/09 02:42:51;;;;;;;110.20;39.00;;;;;;;4.30;100.00;102286.47;4972566;28;20034;-84
2023/04/09 02:45:17;;;;;;;110.60;36.90;;;;;;;4.38;100.00;102286.91;4993994;28;20030;-84
2023/04/09 02:47:42;;;;;;;97.78;35.22;;;;;;;4.39;100.00;102288.59;4975250;28;20038;-80
2023/04/09 02:50:07;;;;;;;95.10;37.47;;;;;;;4.42;100.00;102294.59;5004100;28;20034;-81
2023/04/09 02:52:35;;;;;;;101.97;35.85;;;;;;;4.47;100.00;102293.47;4983345;28;20022;-84
2023/04/09 02:55:00;;;;;;;98.10;37.75;;;;;;;4.46;100.00;102286.47;5004739;28;20383;-84
2023/04/09 02:57:26;;;;;;;100.25;36.40;;;;;;;4.43;100.00;102280.41;4979129;28;20038;-83
2023/04/09 02:59:51;;;;;;;88.60;33.85;;;;;;;4.49;100.00;102271.28;4958660;28;20034;-82
2023/04/09 03:02:17;;;;;;;93.80;35.20;;;;;;;4.50;100.00;102270.34;4983949;28;20034;-83
2023/04/09 03:04:42;;;;;;;106.53;39.47;;;;;;;4.47;100.00;102269.66;5001974;28;20034;-81
2023/04/09 03:07:08;;;;;;;105.43;38.77;;;;;;;4.43;100.00;102272.47;4988420;28;20438;-82
2023/04/09 03:09:33;;;;;;;101.53;35.47;;;;;;;4.50;100.00;102267.72;4989784;28;20030;-80
2023/04/09 03:12:00;;;;;;;95.28;36.53;;;;;;;4.47;100.00;102262.56;4991002;28;20066;-83
2023/04/09 03:14:26;;;;;;;91.63;37.13;;;;;;;4.47;100.00;102257.28;4973271;28;20034;-83
2023/04/09 03:16:52;;;;;;;92.88;36.80;;;;;;;4.48;100.00;102258.16;4984154;28;20917;-82
2023/04/09 03:19:18;;;;;;;96.40;35.37;;;;;;;4.50;100.00;102251.84;4989224;28;20034;-79
2023/04/09 03:21:43;;;;;;;97.17;38.87;;;;;;;4.54;100.00;102253.38;5004612;28;20277;-81
2023/04/09 03:24:09;;;;;;;98.38;39.58;;;;;;;4.48;100.00;102247.56;4993694;28;20674;-82
2023/04/09 03:26:37;;;;;;;87.97;34.53;;;;;;;4.50;100.00;102249.19;5006307;28;20168;-83
2023/04/09 03:29:05;;;;;;;84.57;36.45;;;;;;;4.49;100.00;102247.47;4974147;28;20037;-80
2023/04/09 03:31:31;;;;;;;98.70;38.10;;;;;;;4.49;100.00;102244.81;4985056;28;20084;-83
2023/04/09 03:33:57;;;;;;;105.53;37.40;;;;;;;4.48;100.00;102242.28;4998440;28;20030;-82
2023/04/09 03:36:22;;;;;;;93.80;37.17;;;;;;;4.46;100.00;102242.38;4981763;28;20149;-83
2023/04/09 03:39:00;;;;;;;102.05;38.38;;;;;;;4.49;100.00;102236.03;4991429;28;20065;-80
2023/04/09 03:41:30;;;;;;;91.97;34.53;;;;;;;4.49;100.00;102239.53;4963850;28;20041;-83
2023/04/09 03:43:58;;;;;;;96.80;35.80;;;;;;;4.48;100.00;102226.41;4998647;28;20450;-79
2023/04/09 03:46:28;;;;;;;86.20;34.55;;;;;;;4.48;100.00;102227.25;5001075;28;20050;-80
2023/04/09 03:48:55;;;;;;;94.70;38.60;;;;;;;4.43;100.00;102229.31;4960342;28;20038;-80
2023/04/09 03:51:24;;;;;;;85.90;34.67;;;;;;;4.46;100.00;102226.50;4988317;28;20035;-82
2023/04/09 03:53:54;;;;;;;89.18;39.35;;;;;;;4.53;100.00;102224.34;4976607;28;20038;-83
2023/04/09 03:56:20;;;;;;;88.80;36.43;;;;;;;4.52;100.00;102227.94;4979732;28;20133;-82
2023/04/09 03:58:47;;;;;;;96.43;37.40;;;;;;;4.50;100.00;102225.38;5003451;28;20367;-83
2023/04/09 04:01:12;;;;;;;93.10;34.15;;;;;;;4.55;100.00;102235.72;4981242;28;20061;-81
2023/04/09 04:03:51;;;;;;;87.78;34.55;;;;;;;4.55;100.00;102238.34;4975750;28;20038;-82
2023/04/09 04:06:22;;;;;;;97.45;37.65;;;;;;;4.47;100.00;102238.75;5007359;28;20031;-83
2023/04/09 04:09:02;;;;;;;106.28;37.45;;;;;;;4.45;100.00;102230.09;4980834;28;20034;-83
2023/04/09 04:11:39;;;;;;;99.15;37.92;;;;;;;4.40;100.00;102234.75;5002886;28;20038;-83
2023/04/09 04:14:05;;;;;;;99.97;37.88;;;;;;;4.39;100.00;102230.44;4964917;28;20495;-83
2023/04/09 04:16:31;;;;;;;;;;;;;;;4.41;100.00;102241.78;4990642;28;20631;-84
2023/04/09 04:18:57;;;;;;;109.50;39.63;;;;;;;4.35;100.00;102231.53;5005675;28;20592;-81
2023/04/09 04:21:23;;;;;;;119.28;39.03;;;;;;;4.34;100.00;102229.84;4985810;28;20022;-80
2023/04/09 04:23:55;;;;;;;101.40;39.67;;;;;;;4.39;100.00;102239.19;4975035;28;20038;-82
2023/04/09 04:26:25;;;;;;;104.82;40.65;;;;;;;4.36;100.00;102234.09;4975737;28;20027;-83
2023/04/09 04:28:51;;;;;;;116.63;43.70;;;;;;;4.32;100.00;102237.00;4993562;28;20033;-82
2023/04/09 04:31:30;;;;;;;103.30;41.97;;;;;;;4.38;100.00;102239.31;4974978;28;20128;-82
2023/04/09 04:33:57;;;;;;;115.40;41.55;;;;;;;4.41;100.00;102252.34;4973896;28;20695;-84
2023/04/09 04:36:22;;;;;;;107.07;42.80;;;;;;;4.42;100.00;102254.03;4979972;28;20053;-81
2023/04/09 04:38:50;;;;;;;113.22;40.38;;;;;;;4.38;100.00;102247.25;4962470;28;20109;-83
2023/04/09 04:41:28;;;;;;;99.13;40.17;;;;;;;4.39;100.00;102251.56;4990218;28;20089;-81
2023/04/09 04:44:05;;;;;;;121.20;43.83;;;;;;;4.33;100.00;102260.72;4977863;28;20519;-82
2023/04/09 04:46:30;;;;;;;108.77;39.40;;;;;;;4.30;100.00;102252.09;5001430;28;20050;-81
2023/04/09 04:48:56;;;;;;;114.37;40.93;;;;;;;4.36;100.00;102257.91;4974286;28;20700;-82
2023/04/09 04:51:21;;;;;;;117.13;41.80;;;;;;;4.40;100.00;102261.19;4978171;28;20030;-84
2023/04/09 04:53:59;;;;;;;106.57;43.65;;;;;;;4.45;100.00;102261.81;4974007;28;20041;-82
2023/04/09 04:56:25;;;;;;;106.45;41.08;;;;;;;4.41;100.00;102262.94;5006747;28;20538;-81
2023/04/09 04:59:00;;;;;;;106.32;44.00;;;;;;;4.43;100.00;102258.41;5004740;28;20070;-83
2023/04/09 05:01:30;;;;;;;107.43;41.10;;;;;;;4.47;100.00;102261.72;4984702;28;20509;-83
2023/04/09 05:03:55;;;;;;;107.60;40.85;;;;;;;4.51;100.00;102258.81;4974122;28;20030;-80
2023/04/09 05:06:31;;;;;;;106.47;43.65;;;;;;;4.53;100.00;102264.88;4973509;28;20084;-84
2023/04/09 05:08:58;;;;;;;98.22;40.38;;;;;;;4.60;100.00;102257.47;5004290;28;20790;-81
2023/04/09 05:11:25;;;;;;;102.88;40.97;;;;;;;4.63;100.00;102258.13;4995224;28;20426;-83
2023/04/09 05:13:50;;;;;;;102.13;41.53;;;;;;;4.63;100.00;102251.97;4988977;28;20026;-84
2023/04/09 05:16:17;;;;;;;99.40;38.10;;;;;;;4.70;100.00;102257.78;4979558;28;20762;-85
2023/04/09 05:18:45;;;;;;;101.53;41.25;;;;;;;4.74;100.00;102251.38;5002876;28;20069;-84
2023/04/09 05:21:11;;;;;;;87.93;38.28;;;;;;;4.75;100.00;102253.94;4977794;28;20054;-85
2023/04/09 05:23:38;;;;;;;97.68;41.55;;;;;;;4.80;100.00;102253.66;5002609;28;20030;-83
2023/04/09 05:26:04;;;;;;;88.07;40.97;;;;;;;4.79;100.00;102246.69;5004468;28;20100;-82
2023/04/09 05:28:41;;;;;;;95.25;38.70;;;;;;;4.83;100.00;102242.91;5005425;28;20493;-84
2023/04/09 05:31:18;;;;;;;96.70;41.03;;;;;;;4.77;100.00;102235.31;4965248;28;20026;-82
2023/04/09 05:33:52;;;;;;;96.93;41.60;;;;;;;4.82;100.00;102230.59;4972945;28;20081;-84
2023/04/09 05:36:22;;;;;;;101.43;38.75;;;;;;;4.88;100.00;102232.91;4973691;28;20026;-84
2023/04/09 05:38:47;;;;;;;93.80;38.63;;;;;;;4.97;100.00;102232.38;4959442;28;20120;-83
2023/04/09 05:41:13;;;;;;;82.10;36.97;;;;;;;5.02;100.00;102232.09;4976500;28;20034;-82
2023/04/09 05:43:48;;;;;;;87.50;36.70;;;;;;;5.12;100.00;102232.41;4973473;28;20637;-82
2023/04/09 05:46:13;;;;;;;91.00;39.20;;;;;;;5.08;100.00;102226.47;4983782;28;20038;-82
2023/04/09 05:48:39;;;;;;;75.77;34.03;;;;;;;5.11;100.00;102226.28;4974512;28;20494;-83
2023/04/09 05:51:04;;;;;;;88.75;37.42;;;;;;;5.06;100.00;102218.59;4971842;28;20270;-81
2023/04/09 05:53:30;;;;;;;81.53;35.58;;;;;;;5.10;100.00;102213.97;4963878;28;20227;-85
2023/04/09 05:55:56;;;;;;;87.32;37.25;;;;;;;5.21;100.00;102221.28;5005157;28;20077;-83
2023/04/09 05:58:25;;;;;;;77.55;35.88;;;;;;;5.27;100.00;102228.88;5004736;28;20034;-80
2023/04/09 06:00:51;;;;;;;75.72;34.40;;;;;;;5.38;100.00;102225.56;4988817;28;20035;-82
2023/04/09 06:03:16;;;;;;;69.05;33.30;;;;;;;5.41;100.00;102228.03;4962952;28;20030;-84
2023/04/09 06:05:44;;;;;;;76.67;35.90;;;;;;;5.44;100.00;102228.69;4996766;28;20873;-81
2023/04/09 06:08:10;;;;;;;78.03;36.20;;;;;;;5.48;100.00;102224.06;4988872;28;20026;-83
2023/04/09 06:10:35;;;;;;;79.28;35.67;;;;;;;5.44;100.00;102220.75;5003593;28;20049;-82
2023/04/09 06:13:00;;;;;;;78.33;36.03;;;;;;;5.48;100.00;102222.28;4988533;28;20045;-83
2023/04/09 06:15:26;;;;;;;77.57;35.80;;;;;;;5.57;100.00;102222.63;4986198;28;20030;-85
2023/04/09 06:17:53;;;;;;;88.47;37.42;;;;;;;5.71;100.00;102217.34;4991552;28;20104;-89
2023/04/09 06:20:18;;;;;;;76.27;35.47;;;;;;;5.84;100.00;102228.03;5019971;28;20042;-89
2023/04/09 06:22:43;;;;;;;73.80;34.73;;;;;;;5.86;100.00;102224.34;5000830;28;20034;-89
2023/04/09 06:25:09;;;;;;;74.80;35.30;;;;;;;5.92;100.00;102210.72;4990922;28;20363;-86
2023/04/09 06:27:34;;;;;;;59.53;30.63;;;;;;;6.00;100.00;102209.41;4994650;28;20026;-86
2023/04/09 06:29:59;;;;;;;65.83;31.27;;;;;;;6.04;100.00;102206.47;4992364;28;20132;-86
2023/04/09 06:32:28;;;;;;;66.47;29.10;;;;;;;6.01;100.00;102195.19;5002262;28;20035;-86
2023/04/09 06:34:53;;;;;;;61.83;27.35;;;;;;;6.00;100.00;102189.06;4993892;28;20096;-87
2023/04/09 06:37:18;;;;;;;49.67;24.57;;;;;;;6.08;100.00;102180.59;4986358;28;20038;-85
2023/04/09 06:39:44;;;;;;;54.67;26.63;;;;;;;6.15;100.00;102171.31;5003215;28;20045;-86
2023/04/09 06:42:09;;;;;;;48.30;25.00;;;;;;;5.91;100.00;102156.00;4994733;28;20038;-85
2023/04/09 06:44:48;;;;;;;51.75;23.55;;;;;;;5.93;100.00;102145.28;5011517;28;20046;-88
2023/04/09 06:47:13;;;;;;;42.80;22.73;;;;;;;6.15;100.00;102150.09;4994513;28;20026;-84
2023/04/09 06:49:39;;;;;;;48.53;22.63;;;;;;;6.10;100.00;102134.47;4977859;28;20129;-85
2023/04/09 06:52:06;;;;;;;43.22;22.52;;;;;;;5.83;100.00;102113.22;4994264;28;20164;-87
2023/04/09 06:54:31;;;;;;;47.15;22.90;;;;;;;5.79;100.00;102116.19;4994365;28;20117;-85
2023/04/09 06:56:56;;;;;;;53.27;23.13;;;;;;;6.26;100.00;102131.69;4994743;28;20695;-86
2023/04/09 06:59:22;;;;;;;40.27;21.10;;;;;;;6.58;100.00;102134.03;5009701;28;20289;-85
2023/04/09 07:01:47;;;;;;;37.37;19.50;;;;;;;6.65;100.00;102124.69;4964488;28;20038;-84
2023/04/09 07:04:15;;;;;;;28.60;16.40;;;;;;;6.24;100.00;102064.63;5009928;28;20022;-88
2023/04/09 07:06:40;;;;;;;34.42;17.75;;;;;;;5.94;100.00;102038.34;4977360;28;20038;-84
2023/04/09 07:09:05;;;;;;;32.53;15.60;;;;;;;5.97;100.00;102038.16;5004400;28;20049;-84
2023/04/09 07:11:31;;;;;;;33.60;16.85;;;;;;;6.15;100.00;102044.00;5009600;28;20038;-84
2023/04/09 07:13:57;;;;;;;29.07;15.90;;;;;;;6.45;100.00;102029.66;4983294;28;20049;-83
2023/04/09 07:16:22;;;;;;;30.85;14.50;;;;;;;6.62;100.00;102005.47;4979765;28;20172;-84
2023/04/09 07:18:48;;;;;;;33.97;16.77;;;;;;;6.57;100.00;101982.84;4995231;28;20518;-83
2023/04/09 07:21:13;;;;;;;28.17;15.47;;;;;;;6.57;100.00;101954.50;4982268;28;20034;-84
2023/04/09 07:23:38;;;;;;;32.77;15.53;;;;;;;6.54;100.00;101933.50;5005457;28;20038;-83
2023/04/09 07:26:05;;;;;;;29.00;15.00;;;;;;;6.71;100.00;101941.13;4988407;28;20030;-84
2023/04/09 07:28:30;;;;;;;29.48;14.40;;;;;;;6.64;100.00;101910.66;4992107;28;20038;-85
2023/04/09 07:30:56;;;;;;;27.27;14.88;;;;;;;6.44;100.00;101874.06;4997149;28;20052;-84
2023/04/09 07:33:21;;;;;;;22.90;13.67;;;;;;;6.30;100.00;101867.09;4962668;28;20034;-84
2023/04/09 07:35:47;;;;;;;29.20;14.90;;;;;;;6.30;100.00;101857.34;4976388;28;20093;-83
2023/04/09 07:38:12;;;;;;;29.67;15.80;;;;;;;6.22;100.00;101861.47;4976217;28;20414;-84
2023/04/09 07:40:37;;;;;;;33.23;14.80;;;;;;;6.15;100.00;101862.88;4976521;28;20092;-85
2023/04/09 07:43:04;;;;;;;32.03;14.47;;;;;;;6.29;100.00;101881.31;4997140;28;20065;-84
2023/04/09 07:45:30;;;;;;;33.17;15.90;;;;;;;6.23;100.00;101884.41;5002219;28;20038;-84
2023/04/09 07:47:55;;;;;;;31.63;14.37;;;;;;;6.41;100.00;101893.72;5004160;28;20041;-84
2023/04/09 07:50:20;;;;;;;29.97;14.57;;;;;;;6.52;100.00;101892.97;5000264;28;20067;-85
2023/04/09 07:52:46;;;;;;;26.52;15.45;;;;;;;6.62;100.00;101866.63;4988226;28;20026;-84
2023/04/09 07:55:11;;;;;;;32.47;16.13;;;;;;;6.31;100.00;101861.69;5000487;28;20038;-84
2023/04/09 07:57:37;;;;;;;29.42;14.63;;;;;;;6.34;100.00;101895.97;4975879;28;20079;-84
2023/04/09 08:00:04;;;;;;;28.23;14.23;;;;;;;6.59;100.00;101939.34;4996060;28;20494;-86
2023/04/09 08:02:38;;;;;;;34.00;15.70;;;;;;;7.16;100.00;101941.47;5002443;28;20582;-86
2023/04/09 08:05:04;;;;;;;27.17;13.93;;;;;;;7.46;100.00;101900.31;5007669;28;20134;-84
2023/04/09 08:07:29;;;;;;;24.58;13.38;;;;;;;7.71;100.00;101835.53;4989134;28;20281;-85
2023/04/09 08:09:54;;;;;;;28.63;14.80;;;;;;;7.61;100.00;101728.25;4998401;28;20038;-84
2023/04/09 08:12:20;;;;;;;23.77;12.57;;;;;;;7.66;100.00;101656.13;4998063;28;20081;-84
2023/04/09 08:14:45;;;;;;;22.00;12.57;;;;;;;7.31;100.00;101532.22;4989227;28;20410;-86
2023/04/09 08:17:11;;;;;;;26.90;12.57;;;;;;;7.42;100.00;101566.72;4990829;28;20105;-85
2023/04/09 08:19:36;;;;;;;22.97;11.53;;;;;;;7.13;100.00;101545.97;5005320;28;20049;-85
2023/04/09 08:22:02;;;;;;;31.53;12.20;;;;;;;7.14;100.00;101594.59;4990278;28;20045;-84
2023/04/09 08:24:27;;;;;;;21.85;11.85;;;;;;;7.28;100.00;101588.22;4977471;28;20038;-84
2023/04/09 08:26:53;;;;;;;23.03;12.40;;;;;;;7.55;100.00;101619.75;4960329;28;20049;-86
2023/04/09 08:29:18;;;;;;;26.90;11.75;;;;;;;8.19;100.00;101664.25;4974399;28;20394;-84
2023/04/09 08:31:44;;;;;;;27.58;11.95;;;;;;;8.50;100.00;101571.28;4980990;28;20053;-85
2023/04/09 08:34:09;;;;;;;23.20;11.63;;;;;;;8.52;100.00;101404.34;4958332;28;20034;-85
2023/04/09 08:36:35;;;;;;;25.23;11.27;;;;;;;8.73;100.00;101369.66;4976541;28;20344;-84
2023/04/09 08:39:02;;;;;;;17.67;10.85;;;;;;;9.22;100.00;101408.75;4967348;28;20034;-83
2023/04/09 08:41:28;;;;;;;;;;;;;;;9.65;100.00;101316.91;4975762;28;20030;-84
2023/04/09 08:43:53;;;;;;;;;;;;;;;10.30;100.00;101169.41;4988202;28;20271;-85
2023/04/09 08:46:19;;;;;;;23.10;10.43;;;;;;;10.34;100.00;100951.94;5003071;28;19914;-83
2023/04/09 08:48:46;;;;;;;24.70;11.38;;;;;;;10.46;100.00;100798.53;4989166;28;20034;-83
2023/04/09 08:51:23;;;;;;;21.27;10.02;;;;;;;9.52;100.00;100554.91;4995846;28;20045;-85
2023/04/09 08:53:55;;;;;;;23.02;10.52;;;;;;;10.77;100.00;100841.56;4979652;28;20514;-86
2023/04/09 08:56:21;;;;;;;23.10;10.40;;;;;;;9.96;100.00;100316.53;4975813;28;20458;-84
2023/04/09 08:58:47;;;;;;;19.05;10.93;;;;;;;9.50;100.00;100537.41;4990564;28;20026;-83
2023/04/09 09:01:25;;;;;;;19.23;9.88;;;;;;;10.45;100.00;100769.34;4990640;28;20038;-84
2023/04/09 09:04:03;;;;;;;20.95;9.05;;;;;;;10.86;100.00;100635.91;5009350;28;20034;-83
2023/04/09 09:06:31;;;;;;;16.52;9.10;;;;;;;11.30;100.00;100509.94;5000666;28;20027;-84
2023/04/09 09:09:06;;;;;;;13.85;8.15;;;;;;;11.77;100.00;100361.94;4980641;28;20037;-87
2023/04/09 09:11:35;;;;;;;19.25;9.00;;;;;;;11.67;100.00;100184.91;4983280;28;20120;-85
2023/04/09 09:14:03;;;;;;;15.25;7.80;;;;;;;11.35;98.57;99927.63;5003309;28;20038;-85
2023/04/09 09:16:30;;;;;;;16.20;8.48;;;;;;;10.97;100.00;100144.94;4982043;28;20603;-86
2023/04/09 09:18:55;;;;;;;16.80;9.27;;;;;;;11.44;100.00;100289.19;4990468;28;20018;-85
2023/04/09 09:21:22;;;;;;;17.48;10.32;;;;;;;11.43;98.22;100140.53;4986964;28;20046;-85
2023/04/09 09:23:49;;;;;;;21.10;9.63;;;;;;;11.55;98.93;100273.56;4980709;28;20109;-85
2023/04/09 09:26:20;;;;;;;21.63;9.35;;;;;;;11.96;97.50;100253.63;4977846;28;20042;-85
2023/04/09 09:28:47;;;;;;;22.83;9.38;;;;;;;11.88;96.64;100288.50;4997336;28;20104;-85
2023/04/09 09:31:13;;;;;;;17.63;8.98;;;;;;;12.34;96.01;100372.19;4990517;28;20014;-85
2023/04/09 09:33:39;;;;;;;19.75;10.13;;;;;;;12.25;91.41;99940.53;5003089;28;20049;-85
2023/04/09 09:36:05;;;;;;;18.83;9.30;;;;;;;12.29;90.50;99961.53;4979737;28;20116;-85
2023/04/09 09:38:31;;;;;;;20.88;10.63;;;;;;;12.48;91.13;100150.13;4990203;28;20381;-85
2023/04/09 09:41:00;;;;;;;17.65;8.85;;;;;;;12.98;88.78;100058.09;4990434;28;20042;-85
2023/04/09 09:43:40;;;;;;;16.90;9.18;;;;;;;12.40;88.67;100041.31;4971119;28;20451;-85
2023/04/09 09:46:06;;;;;;;18.48;9.32;;;;;;;12.17;87.35;99935.28;5005829;28;20117;-86
2023/04/09 09:48:31;;;;;;;13.93;8.55;;;;;;;12.72;85.26;99918.63;4998101;28;20086;-85
2023/04/09 09:50:56;;;;;;;17.47;8.10;;;;;;;13.06;84.03;99896.31;4990391;28;20521;-85
2023/04/09 09:53:26;;;;;;;14.53;7.30;;;;;;;12.58;82.08;99569.63;5000378;28;20034;-86
2023/04/09 09:55:56;;;;;;;11.40;6.70;;;;;;;11.97;84.91;99910.22;4976443;28;20282;-86
2023/04/09 09:58:26;;;;;;;15.23;8.15;;;;;;;10.66;84.13;99547.06;5006275;28;20026;-85
2023/04/09 10:00:52;;;;;;;13.85;7.28;;;;;;;10.87;87.33;100136.34;5007226;28;20038;-85
2023/04/09 10:03:26;;;;;;;16.70;8.27;;;;;;;11.47;86.93;100193.44;4977784;28;20818;-86
2023/04/09 10:05:55;;;;;;;18.05;7.90;;;;;;;10.72;88.90;100309.00;4980765;28;20395;-86
2023/04/09 10:08:22;;;;;;;16.38;8.30;;;;;;;11.78;88.11;100476.78;4988454;28;20104;-86
2023/04/09 10:10:49;;;;;;;13.50;7.25;;;;;;;13.22;85.69;100578.69;4992837;28;20781;-85
2023/04/09 10:13:28;;;;;;;12.98;6.63;;;;;;;14.35;83.83;100610.50;5000060;28;20678;-86
2023/04/09 10:15:54;;;;;;;17.27;7.05;;;;;;;15.57;79.47;100358.38;4987944;28;20072;-85
2023/04/09 10:18:20;;;;;;;10.50;6.97;;;;;;;16.14;74.86;99968.38;4988784;28;20110;-85
2023/04/09 10:20:55;;;;;;;13.20;7.40;;;;;;;14.61;73.14;99403.00;5006247;28;20054;-84
2023/04/09 10:23:32;;;;;;;16.90;7.55;;;;;;;15.24;74.47;99893.94;5006883;28;20035;-85
2023/04/09 10:25:58;;;;;;;13.60;7.32;;;;;;;15.53;71.58;99709.63;5007666;28;20107;-84
2023/04/09 10:28:23;;;;;;;13.87;8.17;;;;;;;16.37;70.97;99838.50;5007729;28;20376;-85
2023/04/09 10:30:49;;;;;;;15.73;8.10;;;;;;;16.74;68.73;99761.19;5010652;28;20041;-86
2023/04/09 10:33:20;;;;;;;17.40;8.23;;;;;;;16.77;66.52;99471.53;4983256;28;20096;-86
2023/04/09 10:35:48;;;;;;;15.15;9.40;;;;;;;14.93;66.96;99097.34;4974267;28;20507;-84
2023/04/09 10:38:14;;;;;;;18.20;8.80;;;;;;;16.22;68.39;99847.75;4979249;28;20021;-86
2023/04/09 10:40:50;;;;;;;15.73;7.78;;;;;;;16.21;68.23;99851.47;4994870;28;20204;-88
2023/04/09 10:43:18;;;;;;;14.40;7.30;;;;;;;16.93;65.05;99686.53;4974839;28;20134;-87
2023/04/09 10:45:46;;;;;;;13.65;8.25;;;;;;;15.89;65.20;99389.66;5003031;28;20038;-86
2023/04/09 10:48:15;;;;;;;15.73;9.00;;;;;;;14.84;66.43;99319.03;5002482;28;20018;-84
2023/04/09 10:50:44;;;;;;;20.38;8.13;;;;;;;14.23;69.05;99677.72;5011081;28;20065;-84
2023/04/09 10:53:23;;;;;;;15.15;8.68;;;;;;;15.28;67.28;99829.78;4981859;28;20079;-85
2023/04/09 10:55:50;;;;;;;14.30;8.10;;;;;;;16.58;66.01;100066.28;4993194;28;20034;-85
2023/04/09 10:58:16;;;;;;;16.00;8.70;;;;;;;15.20;65.04;99326.25;4980239;28;20026;-83
2023/04/09 11:00:46;;;;;;;17.57;8.40;;;;;;;14.34;67.18;99572.34;5007513;28;20489;-84
2023/04/09 11:03:24;;;;;;;16.95;8.48;;;;;;;14.83;67.46;99835.16;4965385;28;20455;-85
2023/04/09 11:05:53;;;;;;;14.48;8.50;;;;;;;14.66;67.12;99617.22;4995449;28;20038;-87
2023/04/09 11:08:18;;;;;;;16.77;8.25;;;;;;;15.67;68.07;100250.34;5010677;28;20038;-87
2023/04/09 11:10:46;;;;;;;16.58;8.75;;;;;;;15.06;65.87;99644.63;5014248;28;20049;-87
2023/04/09 11:13:16;;;;;;;14.40;7.75;;;;;;;13.60;69.74;99892.84;4964416;28;20042;-88